Borough Green, United Kingdom
Current Conditions -  °F | °C
As of 1:20 PM on Tuesday 21 Oct 2014 (Local Time) from EGKB Reporting Station
Scattered Clouds Scattered Clouds  
Wind Chill: 54°   Ceiling: Unl
Heat Index: 54°   Visibility: 6mi
Dew Point: 37°   Wind: 23mph
Humidity: 54%   Direction: 290°WNW
Pressure: 29.71"   Gusts: 41mph
Location:  51.29°N, 0.3°E
Report Text: EGKB 211220Z 29020G36KT 260V320 9999 SCT038 12/03 Q1006
Loading
Personal Weather Stations






























Interactive Weather Map
Tropical Storm Tracking
New forecast layout! Learn more

10-Day Weather Forecast

Advertisements
Track Severe Weather on mobile